Overview Statistics Trail Chart Weather Telemetry Raw packets
 

This is the latest recevied weather packets stored in our database for station/object IN3MWE-10. If no packets are shown the sender has not sent any weather packets the latest 10 day(s).

<< 9 10 11 12 13 14 15 >>
Time Temp. Humidity Pressure Rain* Wind** Luminosity Snow
1788429017 27.78° C 39% 984.5 hPa - - - -
1788428117 27.22° C 41% 984.7 hPa - - - -
1788427217 26.11° C 41% 985 hPa - - - -
1788426317 26.67° C 42% 985.3 hPa - - - -
1788425416 28.89° C 35% 985.6 hPa - - - -
1788424516 28.89° C 36% 985.9 hPa - - - -
1788423616 28.33° C 38% 985.9 hPa - - - -
1788422716 27.22° C 41% 985.9 hPa - - - -
1788421816 25.56° C 43% 986.1 hPa - - - -
1788420916 23.89° C 51% 986.1 hPa - - - -
1788420016 20.56° C 64% 986.4 hPa - - - -
1788419115 18.33° C 76% 986.4 hPa - - - -
1788418215 18.33° C 80% 986.7 hPa - - - -
1788417315 18.33° C 76% 986.7 hPa - - - -
1788416415 18.33° C 75% 986.7 hPa - - - -
1788415515 17.78° C 73% 986.6 hPa - - - -
1788414615 17.78° C 72% 986.4 hPa - - - -
1788413715 17.78° C 72% 986.3 hPa - - - -
1788412814 17.78° C 74% 986.2 hPa - - - -
1788411914 17.78° C 73% 986 hPa - - - -
1788411014 17.78° C 71% 985.8 hPa - - - -
1788410114 17.78° C 74% 985.7 hPa - - - -
1788409214 17.78° C 77% 985.7 hPa - - - -
1788408314 18.33° C 74% 985.5 hPa - - - -
1788407414 17.78° C 75% 985.5 hPa - - - -

* Rain since midnight (hover to see other rain measurements)
** Current wind speed in m/s (hover to see current wind gust speed)